sensor_id;sensor_type;location;lat;lon;timestamp;temperature;humidity
15636;DHT22;7917;50.818;6.972;2023-07-16T00:00:34;19.80;99.90
15636;DHT22;7917;50.818;6.972;2023-07-16T00:03:01;19.80;99.90
15636;DHT22;7917;50.818;6.972;2023-07-16T00:05:28;19.70;99.90
15636;DHT22;7917;50.818;6.972;2023-07-16T00:07:55;19.70;99.90
15636;DHT22;7917;50.818;6.972;2023-07-16T00:10:22;19.60;99.90
15636;DHT22;7917;50.818;6.972;2023-07-16T00:12:49;19.50;99.90
15636;DHT22;7917;50.818;6.972;2023-07-16T00:15:16;19.50;99.90
15636;DHT22;7917;50.818;6.972;2023-07-16T00:17:42;19.40;99.90
15636;DHT22;7917;50.818;6.972;2023-07-16T00:20:10;19.30;99.90
15636;DHT22;7917;50.818;6.972;2023-07-16T00:22:37;19.20;99.90
15636;DHT22;7917;50.818;6.972;2023-07-16T00:25:05;19.20;99.90
15636;DHT22;7917;50.818;6.972;2023-07-16T00:27:34;19.20;99.90
15636;DHT22;7917;50.818;6.972;2023-07-16T00:30:00;19.20;99.90
15636;DHT22;7917;50.818;6.972;2023-07-16T00:32:26;19.10;99.90
15636;DHT22;7917;50.818;6.972;2023-07-16T00:34:54;19.10;99.90
15636;DHT22;7917;50.818;6.972;2023-07-16T00:37:20;19.10;99.90
15636;DHT22;7917;50.818;6.972;2023-07-16T00:39:47;19.10;99.90
15636;DHT22;7917;50.818;6.972;2023-07-16T00:42:13;19.10;99.90
15636;DHT22;7917;50.818;6.972;2023-07-16T00:44:41;19.10;99.90
15636;DHT22;7917;50.818;6.972;2023-07-16T00:47:08;19.00;99.90
15636;DHT22;7917;50.818;6.972;2023-07-16T00:49:36;19.00;99.90
15636;DHT22;7917;50.818;6.972;2023-07-16T00:52:04;18.90;99.90
15636;DHT22;7917;50.818;6.972;2023-07-16T00:54:31;18.80;99.90
15636;DHT22;7917;50.818;6.972;2023-07-16T00:56:59;18.70;99.90
15636;DHT22;7917;50.818;6.972;2023-07-16T00:59:25;18.60;99.90
15636;DHT22;7917;50.818;6.972;2023-07-16T01:01:52;18.60;99.90
15636;DHT22;7917;50.818;6.972;2023-07-16T01:04:20;18.40;99.90
15636;DHT22;7917;50.818;6.972;2023-07-16T01:06:50;18.30;99.90
15636;DHT22;7917;50.818;6.972;2023-07-16T01:09:18;18.20;99.90
15636;DHT22;7917;50.818;6.972;2023-07-16T01:11:46;18.10;99.90
15636;DHT22;7917;50.818;6.972;2023-07-16T01:14:13;18.00;1.00
15636;DHT22;7917;50.818;6.972;2023-07-16T01:16:41;17.90;1.00
15636;DHT22;7917;50.818;6.972;2023-07-16T01:19:10;17.70;1.00
15636;DHT22;7917;50.818;6.972;2023-07-16T01:21:45;17.60;1.00
15636;DHT22;7917;50.818;6.972;2023-07-16T01:27:35;17.30;1.00
15636;DHT22;7917;50.818;6.972;2023-07-16T01:30:08;17.20;1.00
15636;DHT22;7917;50.818;6.972;2023-07-16T01:32:36;17.20;1.00
15636;DHT22;7917;50.818;6.972;2023-07-16T01:35:05;17.20;1.00
15636;DHT22;7917;50.818;6.972;2023-07-16T01:37:31;17.30;1.00
15636;DHT22;7917;50.818;6.972;2023-07-16T01:39:58;17.30;1.00
15636;DHT22;7917;50.818;6.972;2023-07-16T01:42:25;17.30;1.00
15636;DHT22;7917;50.818;6.972;2023-07-16T01:44:51;17.30;1.00
15636;DHT22;7917;50.818;6.972;2023-07-16T01:47:23;17.30;1.00
15636;DHT22;7917;50.818;6.972;2023-07-16T01:49:50;17.20;1.00
15636;DHT22;7917;50.818;6.972;2023-07-16T01:52:17;17.20;1.00
15636;DHT22;7917;50.818;6.972;2023-07-16T01:54:43;17.20;1.00
15636;DHT22;7917;50.818;6.972;2023-07-16T01:57:10;17.10;1.00
15636;DHT22;7917;50.818;6.972;2023-07-16T01:59:36;17.00;1.00
15636;DHT22;7917;50.818;6.972;2023-07-16T02:02:04;17.00;1.00
15636;DHT22;7917;50.818;6.972;2023-07-16T02:04:31;17.00;1.00
15636;DHT22;7917;50.818;6.972;2023-07-16T02:06:57;17.00;1.00
15636;DHT22;7917;50.818;6.972;2023-07-16T02:09:24;16.90;1.00
15636;DHT22;7917;50.818;6.972;2023-07-16T02:11:51;16.90;1.00
15636;DHT22;7917;50.818;6.972;2023-07-16T02:14:18;16.90;1.00
15636;DHT22;7917;50.818;6.972;2023-07-16T02:16:44;16.90;1.00
15636;DHT22;7917;50.818;6.972;2023-07-16T02:19:11;17.10;1.00
15636;DHT22;7917;50.818;6.972;2023-07-16T02:21:38;17.10;1.00
15636;DHT22;7917;50.818;6.972;2023-07-16T02:24:05;17.10;1.00
15636;DHT22;7917;50.818;6.972;2023-07-16T02:26:32;17.20;1.00
15636;DHT22;7917;50.818;6.972;2023-07-16T02:28:59;17.20;1.00
15636;DHT22;7917;50.818;6.972;2023-07-16T02:31:25;17.20;1.00
15636;DHT22;7917;50.818;6.972;2023-07-16T02:33:51;17.30;1.00
15636;DHT22;7917;50.818;6.972;2023-07-16T02:36:18;17.20;1.00
15636;DHT22;7917;50.818;6.972;2023-07-16T02:38:45;17.30;99.90
15636;DHT22;7917;50.818;6.972;2023-07-16T02:41:11;17.30;99.90
15636;DHT22;7917;50.818;6.972;2023-07-16T02:43:39;17.30;99.90
15636;DHT22;7917;50.818;6.972;2023-07-16T02:46:05;17.30;99.90
15636;DHT22;7917;50.818;6.972;2023-07-16T02:48:32;17.30;99.90
15636;DHT22;7917;50.818;6.972;2023-07-16T02:50:58;17.30;99.90
15636;DHT22;7917;50.818;6.972;2023-07-16T02:53:24;17.30;99.90
15636;DHT22;7917;50.818;6.972;2023-07-16T02:55:51;17.20;99.90
15636;DHT22;7917;50.818;6.972;2023-07-16T02:58:18;17.10;99.90
15636;DHT22;7917;50.818;6.972;2023-07-16T03:04:04;17.10;99.90
15636;DHT22;7917;50.818;6.972;2023-07-16T03:06:30;17.10;99.90
15636;DHT22;7917;50.818;6.972;2023-07-16T03:08:57;17.10;99.90
15636;DHT22;7917;50.818;6.972;2023-07-16T03:11:24;17.10;99.90
15636;DHT22;7917;50.818;6.972;2023-07-16T03:13:52;17.00;99.90
15636;DHT22;7917;50.818;6.972;2023-07-16T03:16:18;17.00;99.90
15636;DHT22;7917;50.818;6.972;2023-07-16T03:18:45;17.00;99.90
15636;DHT22;7917;50.818;6.972;2023-07-16T03:21:12;17.00;99.90
15636;DHT22;7917;50.818;6.972;2023-07-16T03:23:38;16.90;99.90
15636;DHT22;7917;50.818;6.972;2023-07-16T03:26:05;16.80;99.90
15636;DHT22;7917;50.818;6.972;2023-07-16T03:28:33;16.80;99.90
15636;DHT22;7917;50.818;6.972;2023-07-16T03:31:00;16.80;99.90
15636;DHT22;7917;50.818;6.972;2023-07-16T03:33:26;16.70;1.00
15636;DHT22;7917;50.818;6.972;2023-07-16T03:35:53;16.70;1.00
15636;DHT22;7917;50.818;6.972;2023-07-16T03:38:19;16.60;1.00
15636;DHT22;7917;50.818;6.972;2023-07-16T03:40:47;16.60;1.00
15636;DHT22;7917;50.818;6.972;2023-07-16T03:43:14;16.50;1.00
15636;DHT22;7917;50.818;6.972;2023-07-16T03:45:41;16.50;1.00
15636;DHT22;7917;50.818;6.972;2023-07-16T03:48:08;16.50;1.00
15636;DHT22;7917;50.818;6.972;2023-07-16T03:50:35;16.40;1.00
15636;DHT22;7917;50.818;6.972;2023-07-16T03:53:02;16.40;1.00
15636;DHT22;7917;50.818;6.972;2023-07-16T03:55:29;16.40;1.00
15636;DHT22;7917;50.818;6.972;2023-07-16T03:57:56;16.40;1.00
15636;DHT22;7917;50.818;6.972;2023-07-16T04:00:22;16.30;1.00
15636;DHT22;7917;50.818;6.972;2023-07-16T04:02:50;16.30;1.00
15636;DHT22;7917;50.818;6.972;2023-07-16T04:05:16;16.20;1.00
15636;DHT22;7917;50.818;6.972;2023-07-16T04:07:43;16.20;1.00
15636;DHT22;7917;50.818;6.972;2023-07-16T04:10:09;16.20;1.00
15636;DHT22;7917;50.818;6.972;2023-07-16T04:12:37;16.20;1.00
15636;DHT22;7917;50.818;6.972;2023-07-16T04:15:07;16.10;1.00
15636;DHT22;7917;50.818;6.972;2023-07-16T04:17:34;16.20;1.00
15636;DHT22;7917;50.818;6.972;2023-07-16T04:20:02;16.10;1.00
15636;DHT22;7917;50.818;6.972;2023-07-16T04:22:29;16.20;1.00
15636;DHT22;7917;50.818;6.972;2023-07-16T04:24:56;16.20;1.00
15636;DHT22;7917;50.818;6.972;2023-07-16T04:27:22;16.20;1.00
15636;DHT22;7917;50.818;6.972;2023-07-16T04:29:49;16.20;1.00
15636;DHT22;7917;50.818;6.972;2023-07-16T04:32:15;16.30;1.00
15636;DHT22;7917;50.818;6.972;2023-07-16T04:34:42;16.30;1.00
15636;DHT22;7917;50.818;6.972;2023-07-16T04:37:09;16.30;1.00
15636;DHT22;7917;50.818;6.972;2023-07-16T04:39:36;16.30;1.00
15636;DHT22;7917;50.818;6.972;2023-07-16T04:42:06;16.30;1.00
15636;DHT22;7917;50.818;6.972;2023-07-16T04:44:32;16.40;1.00
15636;DHT22;7917;50.818;6.972;2023-07-16T04:46:59;16.40;1.00
15636;DHT22;7917;50.818;6.972;2023-07-16T04:49:25;16.50;1.00
15636;DHT22;7917;50.818;6.972;2023-07-16T04:51:52;16.50;1.00
15636;DHT22;7917;50.818;6.972;2023-07-16T04:54:19;16.60;99.90
15636;DHT22;7917;50.818;6.972;2023-07-16T04:56:47;16.70;99.90
15636;DHT22;7917;50.818;6.972;2023-07-16T04:59:13;16.80;99.90
15636;DHT22;7917;50.818;6.972;2023-07-16T05:01:39;16.90;99.90
15636;DHT22;7917;50.818;6.972;2023-07-16T05:04:07;17.00;99.90
15636;DHT22;7917;50.818;6.972;2023-07-16T05:06:34;17.10;99.90
15636;DHT22;7917;50.818;6.972;2023-07-16T05:09:00;17.30;99.90
15636;DHT22;7917;50.818;6.972;2023-07-16T05:11:28;17.30;99.90
15636;DHT22;7917;50.818;6.972;2023-07-16T05:13:55;17.50;99.90
15636;DHT22;7917;50.818;6.972;2023-07-16T05:16:21;17.60;99.90
15636;DHT22;7917;50.818;6.972;2023-07-16T05:18:48;17.70;99.90
15636;DHT22;7917;50.818;6.972;2023-07-16T05:21:14;17.80;99.90
15636;DHT22;7917;50.818;6.972;2023-07-16T05:23:41;17.90;99.90
15636;DHT22;7917;50.818;6.972;2023-07-16T05:26:07;18.10;99.90
15636;DHT22;7917;50.818;6.972;2023-07-16T05:28:35;18.20;99.90
15636;DHT22;7917;50.818;6.972;2023-07-16T05:31:03;18.30;99.90
15636;DHT22;7917;50.818;6.972;2023-07-16T05:33:30;18.40;99.90
15636;DHT22;7917;50.818;6.972;2023-07-16T05:35:56;18.60;98.70
15636;DHT22;7917;50.818;6.972;2023-07-16T05:38:23;18.70;88.10
15636;DHT22;7917;50.818;6.972;2023-07-16T05:40:50;18.80;77.90
15636;DHT22;7917;50.818;6.972;2023-07-16T05:43:17;18.90;71.40
15636;DHT22;7917;50.818;6.972;2023-07-16T05:45:44;18.90;77.30
15636;DHT22;7917;50.818;6.972;2023-07-16T05:48:10;19.10;60.70
15636;DHT22;7917;50.818;6.972;2023-07-16T05:50:37;19.20;49.40
15636;DHT22;7917;50.818;6.972;2023-07-16T05:53:03;19.20;35.00
15636;DHT22;7917;50.818;6.972;2023-07-16T05:55:30;19.20;31.50
15636;DHT22;7917;50.818;6.972;2023-07-16T05:57:56;19.20;27.80
15636;DHT22;7917;50.818;6.972;2023-07-16T06:00:24;19.30;27.90
15636;DHT22;7917;50.818;6.972;2023-07-16T06:02:51;19.30;23.60
15636;DHT22;7917;50.818;6.972;2023-07-16T06:05:18;19.30;23.20
15636;DHT22;7917;50.818;6.972;2023-07-16T06:07:44;19.40;20.70
15636;DHT22;7917;50.818;6.972;2023-07-16T06:10:11;19.40;21.90
15636;DHT22;7917;50.818;6.972;2023-07-16T06:12:39;19.70;22.10
15636;DHT22;7917;50.818;6.972;2023-07-16T06:15:06;19.80;11.00
15636;DHT22;7917;50.818;6.972;2023-07-16T06:17:33;19.90;9.30
15636;DHT22;7917;50.818;6.972;2023-07-16T06:20:01;19.90;5.10
15636;DHT22;7917;50.818;6.972;2023-07-16T06:22:28;20.10;6.60
15636;DHT22;7917;50.818;6.972;2023-07-16T06:24:55;20.10;1.70
15636;DHT22;7917;50.818;6.972;2023-07-16T06:27:22;20.20;1.10
15636;DHT22;7917;50.818;6.972;2023-07-16T06:29:48;20.10;1.00
15636;DHT22;7917;50.818;6.972;2023-07-16T06:32:15;20.30;1.00
15636;DHT22;7917;50.818;6.972;2023-07-16T06:34:44;20.40;1.00
15636;DHT22;7917;50.818;6.972;2023-07-16T06:37:12;20.40;1.00
15636;DHT22;7917;50.818;6.972;2023-07-16T06:39:38;20.40;1.00
15636;DHT22;7917;50.818;6.972;2023-07-16T06:42:05;20.50;1.00
15636;DHT22;7917;50.818;6.972;2023-07-16T06:44:32;20.40;1.00
15636;DHT22;7917;50.818;6.972;2023-07-16T06:46:59;20.50;1.00
15636;DHT22;7917;50.818;6.972;2023-07-16T06:49:25;20.60;1.00
15636;DHT22;7917;50.818;6.972;2023-07-16T06:51:52;20.80;1.00
15636;DHT22;7917;50.818;6.972;2023-07-16T06:54:19;20.70;1.00
15636;DHT22;7917;50.818;6.972;2023-07-16T06:56:45;20.50;1.00
15636;DHT22;7917;50.818;6.972;2023-07-16T06:59:15;20.40;1.00
15636;DHT22;7917;50.818;6.972;2023-07-16T07:01:42;20.60;1.00
15636;DHT22;7917;50.818;6.972;2023-07-16T07:04:08;20.40;1.00
15636;DHT22;7917;50.818;6.972;2023-07-16T07:06:36;20.50;1.00
15636;DHT22;7917;50.818;6.972;2023-07-16T07:09:02;20.50;1.00
15636;DHT22;7917;50.818;6.972;2023-07-16T07:11:30;20.90;1.00
15636;DHT22;7917;50.818;6.972;2023-07-16T07:13:57;21.20;1.00
15636;DHT22;7917;50.818;6.972;2023-07-16T07:16:24;21.50;1.00
15636;DHT22;7917;50.818;6.972;2023-07-16T07:18:51;21.70;1.00
15636;DHT22;7917;50.818;6.972;2023-07-16T07:21:17;21.90;1.00
15636;DHT22;7917;50.818;6.972;2023-07-16T07:23:44;21.70;1.00
15636;DHT22;7917;50.818;6.972;2023-07-16T07:26:11;21.30;1.00
15636;DHT22;7917;50.818;6.972;2023-07-16T07:28:38;21.40;1.00
15636;DHT22;7917;50.818;6.972;2023-07-16T07:31:04;21.50;1.00
15636;DHT22;7917;50.818;6.972;2023-07-16T07:33:31;21.80;1.00
15636;DHT22;7917;50.818;6.972;2023-07-16T07:35:59;22.20;1.00
15636;DHT22;7917;50.818;6.972;2023-07-16T07:38:25;22.30;1.00
15636;DHT22;7917;50.818;6.972;2023-07-16T07:40:52;22.30;1.00
15636;DHT22;7917;50.818;6.972;2023-07-16T07:43:20;22.30;1.00
15636;DHT22;7917;50.818;6.972;2023-07-16T07:45:48;22.50;1.00
15636;DHT22;7917;50.818;6.972;2023-07-16T07:48:14;22.30;1.00
15636;DHT22;7917;50.818;6.972;2023-07-16T07:50:41;22.20;1.00
15636;DHT22;7917;50.818;6.972;2023-07-16T07:53:07;22.20;1.00
15636;DHT22;7917;50.818;6.972;2023-07-16T07:55:34;22.20;1.00
15636;DHT22;7917;50.818;6.972;2023-07-16T07:58:01;22.10;1.00
15636;DHT22;7917;50.818;6.972;2023-07-16T08:00:28;22.20;1.00
15636;DHT22;7917;50.818;6.972;2023-07-16T08:02:55;22.20;1.00
15636;DHT22;7917;50.818;6.972;2023-07-16T08:05:22;22.30;1.00
15636;DHT22;7917;50.818;6.972;2023-07-16T08:07:48;22.20;1.00
15636;DHT22;7917;50.818;6.972;2023-07-16T08:10:16;22.30;1.00
15636;DHT22;7917;50.818;6.972;2023-07-16T08:12:42;22.20;1.00
15636;DHT22;7917;50.818;6.972;2023-07-16T08:15:10;22.20;1.00
15636;DHT22;7917;50.818;6.972;2023-07-16T08:17:40;21.90;1.00
15636;DHT22;7917;50.818;6.972;2023-07-16T08:20:09;21.80;1.00
15636;DHT22;7917;50.818;6.972;2023-07-16T08:22:35;21.80;1.00
15636;DHT22;7917;50.818;6.972;2023-07-16T08:25:03;21.80;1.00
15636;DHT22;7917;50.818;6.972;2023-07-16T08:27:31;21.90;1.00
15636;DHT22;7917;50.818;6.972;2023-07-16T08:29:58;21.80;1.00
15636;DHT22;7917;50.818;6.972;2023-07-16T08:32:24;21.70;1.00
15636;DHT22;7917;50.818;6.972;2023-07-16T08:34:52;21.70;1.00
15636;DHT22;7917;50.818;6.972;2023-07-16T08:37:19;21.40;1.00
15636;DHT22;7917;50.818;6.972;2023-07-16T08:39:46;21.50;1.00
15636;DHT22;7917;50.818;6.972;2023-07-16T08:42:13;21.70;1.00
15636;DHT22;7917;50.818;6.972;2023-07-16T08:44:40;22.20;1.00
15636;DHT22;7917;50.818;6.972;2023-07-16T08:47:08;22.40;1.00
15636;DHT22;7917;50.818;6.972;2023-07-16T08:49:34;22.30;1.00
15636;DHT22;7917;50.818;6.972;2023-07-16T08:52:02;22.10;1.00
15636;DHT22;7917;50.818;6.972;2023-07-16T08:54:31;21.90;1.00
15636;DHT22;7917;50.818;6.972;2023-07-16T08:56:57;21.80;1.00
15636;DHT22;7917;50.818;6.972;2023-07-16T08:59:25;22.10;1.00
15636;DHT22;7917;50.818;6.972;2023-07-16T09:01:52;22.50;1.00
15636;DHT22;7917;50.818;6.972;2023-07-16T09:04:19;22.30;1.00
15636;DHT22;7917;50.818;6.972;2023-07-16T09:06:46;22.10;1.00
15636;DHT22;7917;50.818;6.972;2023-07-16T09:09:19;22.50;1.00
15636;DHT22;7917;50.818;6.972;2023-07-16T09:11:48;22.60;1.00
15636;DHT22;7917;50.818;6.972;2023-07-16T09:14:16;22.90;1.00
15636;DHT22;7917;50.818;6.972;2023-07-16T09:16:47;23.40;1.00
15636;DHT22;7917;50.818;6.972;2023-07-16T09:19:14;23.30;1.00
15636;DHT22;7917;50.818;6.972;2023-07-16T09:21:45;23.40;1.00
15636;DHT22;7917;50.818;6.972;2023-07-16T09:24:12;23.40;1.00
15636;DHT22;7917;50.818;6.972;2023-07-16T09:26:38;23.00;1.00
15636;DHT22;7917;50.818;6.972;2023-07-16T09:29:07;23.10;1.00
15636;DHT22;7917;50.818;6.972;2023-07-16T09:31:34;23.50;1.00
15636;DHT22;7917;50.818;6.972;2023-07-16T09:34:00;23.90;1.00
15636;DHT22;7917;50.818;6.972;2023-07-16T09:36:27;23.80;1.00
15636;DHT22;7917;50.818;6.972;2023-07-16T09:38:55;23.90;1.00
15636;DHT22;7917;50.818;6.972;2023-07-16T09:41:23;23.70;1.00
15636;DHT22;7917;50.818;6.972;2023-07-16T09:43:51;23.40;1.00
15636;DHT22;7917;50.818;6.972;2023-07-16T09:46:19;23.30;1.00
15636;DHT22;7917;50.818;6.972;2023-07-16T09:48:46;23.50;1.00
15636;DHT22;7917;50.818;6.972;2023-07-16T09:51:13;23.60;1.00
15636;DHT22;7917;50.818;6.972;2023-07-16T09:53:44;23.70;1.00
15636;DHT22;7917;50.818;6.972;2023-07-16T09:56:12;23.40;1.00
15636;DHT22;7917;50.818;6.972;2023-07-16T09:58:40;22.90;1.00
15636;DHT22;7917;50.818;6.972;2023-07-16T10:01:08;23.00;1.00
15636;DHT22;7917;50.818;6.972;2023-07-16T10:03:36;23.40;1.00
15636;DHT22;7917;50.818;6.972;2023-07-16T10:06:08;23.90;1.00
15636;DHT22;7917;50.818;6.972;2023-07-16T10:08:35;24.10;1.00
15636;DHT22;7917;50.818;6.972;2023-07-16T10:11:03;24.70;1.00
15636;DHT22;7917;50.818;6.972;2023-07-16T10:13:29;24.00;1.00
15636;DHT22;7917;50.818;6.972;2023-07-16T10:15:58;23.60;1.00
15636;DHT22;7917;50.818;6.972;2023-07-16T10:18:26;23.20;1.00
15636;DHT22;7917;50.818;6.972;2023-07-16T10:21:01;23.20;1.00
15636;DHT22;7917;50.818;6.972;2023-07-16T10:23:37;23.50;1.00
15636;DHT22;7917;50.818;6.972;2023-07-16T10:26:05;24.10;1.00
15636;DHT22;7917;50.818;6.972;2023-07-16T10:28:32;23.90;1.00
15636;DHT22;7917;50.818;6.972;2023-07-16T10:30:58;23.80;1.00
15636;DHT22;7917;50.818;6.972;2023-07-16T10:33:25;23.50;1.00
15636;DHT22;7917;50.818;6.972;2023-07-16T10:35:52;23.60;1.00
15636;DHT22;7917;50.818;6.972;2023-07-16T10:38:20;23.90;1.00
15636;DHT22;7917;50.818;6.972;2023-07-16T10:40:47;24.20;1.00
15636;DHT22;7917;50.818;6.972;2023-07-16T10:43:15;24.80;1.00
15636;DHT22;7917;50.818;6.972;2023-07-16T10:45:41;24.90;1.00
15636;DHT22;7917;50.818;6.972;2023-07-16T10:48:08;24.60;1.00
15636;DHT22;7917;50.818;6.972;2023-07-16T10:50:35;24.60;1.00
15636;DHT22;7917;50.818;6.972;2023-07-16T10:53:02;24.40;1.00
15636;DHT22;7917;50.818;6.972;2023-07-16T10:55:30;25.00;1.00
15636;DHT22;7917;50.818;6.972;2023-07-16T10:57:58;25.50;1.00
15636;DHT22;7917;50.818;6.972;2023-07-16T11:00:25;25.60;1.00
15636;DHT22;7917;50.818;6.972;2023-07-16T11:02:52;25.50;1.00
15636;DHT22;7917;50.818;6.972;2023-07-16T11:05:19;26.00;1.00
15636;DHT22;7917;50.818;6.972;2023-07-16T11:07:47;25.40;1.00
15636;DHT22;7917;50.818;6.972;2023-07-16T11:10:15;24.90;1.00
15636;DHT22;7917;50.818;6.972;2023-07-16T11:12:43;25.40;1.00
15636;DHT22;7917;50.818;6.972;2023-07-16T11:15:10;25.40;1.00
15636;DHT22;7917;50.818;6.972;2023-07-16T11:17:38;25.20;1.00
15636;DHT22;7917;50.818;6.972;2023-07-16T11:20:07;24.90;1.00
15636;DHT22;7917;50.818;6.972;2023-07-16T11:22:37;25.00;1.00
15636;DHT22;7917;50.818;6.972;2023-07-16T11:25:11;25.80;1.00
15636;DHT22;7917;50.818;6.972;2023-07-16T11:27:41;26.20;1.00
15636;DHT22;7917;50.818;6.972;2023-07-16T11:30:09;26.70;1.00
15636;DHT22;7917;50.818;6.972;2023-07-16T11:32:37;26.50;1.00
15636;DHT22;7917;50.818;6.972;2023-07-16T11:35:06;26.20;1.00
15636;DHT22;7917;50.818;6.972;2023-07-16T11:37:35;25.80;1.00
15636;DHT22;7917;50.818;6.972;2023-07-16T11:40:04;25.60;1.00
15636;DHT22;7917;50.818;6.972;2023-07-16T11:42:31;25.30;1.00
15636;DHT22;7917;50.818;6.972;2023-07-16T11:44:59;24.90;1.00
15636;DHT22;7917;50.818;6.972;2023-07-16T11:47:27;25.40;1.00
15636;DHT22;7917;50.818;6.972;2023-07-16T11:49:55;25.80;1.00
15636;DHT22;7917;50.818;6.972;2023-07-16T11:52:23;25.60;1.00
15636;DHT22;7917;50.818;6.972;2023-07-16T11:54:51;25.40;1.00
15636;DHT22;7917;50.818;6.972;2023-07-16T11:57:18;25.00;1.00
15636;DHT22;7917;50.818;6.972;2023-07-16T11:59:45;25.00;1.00
15636;DHT22;7917;50.818;6.972;2023-07-16T12:02:12;25.20;1.00
15636;DHT22;7917;50.818;6.972;2023-07-16T12:04:41;25.00;1.00
15636;DHT22;7917;50.818;6.972;2023-07-16T12:07:07;24.90;1.00
15636;DHT22;7917;50.818;6.972;2023-07-16T12:09:34;25.10;1.00
15636;DHT22;7917;50.818;6.972;2023-07-16T12:12:01;25.60;1.00
15636;DHT22;7917;50.818;6.972;2023-07-16T12:14:28;25.80;1.00
15636;DHT22;7917;50.818;6.972;2023-07-16T12:16:55;26.00;1.00
15636;DHT22;7917;50.818;6.972;2023-07-16T12:19:22;26.40;1.00
15636;DHT22;7917;50.818;6.972;2023-07-16T12:21:49;26.40;1.00
15636;DHT22;7917;50.818;6.972;2023-07-16T12:24:17;26.30;1.00
15636;DHT22;7917;50.818;6.972;2023-07-16T12:26:44;26.20;1.00
15636;DHT22;7917;50.818;6.972;2023-07-16T12:29:10;26.90;1.00
15636;DHT22;7917;50.818;6.972;2023-07-16T12:31:37;26.90;1.00
15636;DHT22;7917;50.818;6.972;2023-07-16T12:34:04;26.20;1.00
15636;DHT22;7917;50.818;6.972;2023-07-16T12:36:30;25.90;1.00
15636;DHT22;7917;50.818;6.972;2023-07-16T12:38:58;25.80;1.00
15636;DHT22;7917;50.818;6.972;2023-07-16T12:41:25;25.70;1.00
15636;DHT22;7917;50.818;6.972;2023-07-16T12:43:52;25.70;1.00
15636;DHT22;7917;50.818;6.972;2023-07-16T12:46:19;25.70;1.00
15636;DHT22;7917;50.818;6.972;2023-07-16T12:48:48;25.80;1.00
15636;DHT22;7917;50.818;6.972;2023-07-16T12:51:15;25.60;1.00
15636;DHT22;7917;50.818;6.972;2023-07-16T12:53:42;25.30;1.00
15636;DHT22;7917;50.818;6.972;2023-07-16T12:56:10;25.10;1.00
15636;DHT22;7917;50.818;6.972;2023-07-16T12:58:37;25.30;1.00
15636;DHT22;7917;50.818;6.972;2023-07-16T13:01:03;25.10;1.00
15636;DHT22;7917;50.818;6.972;2023-07-16T13:03:30;25.20;1.00
15636;DHT22;7917;50.818;6.972;2023-07-16T13:05:58;25.40;1.00
15636;DHT22;7917;50.818;6.972;2023-07-16T13:08:24;25.20;1.00
15636;DHT22;7917;50.818;6.972;2023-07-16T13:10:51;25.10;1.00
15636;DHT22;7917;50.818;6.972;2023-07-16T13:13:19;25.20;1.00
15636;DHT22;7917;50.818;6.972;2023-07-16T13:15:46;26.00;1.00
15636;DHT22;7917;50.818;6.972;2023-07-16T13:18:13;26.00;1.00
15636;DHT22;7917;50.818;6.972;2023-07-16T13:20:40;26.40;1.00
15636;DHT22;7917;50.818;6.972;2023-07-16T13:23:07;26.60;1.00
15636;DHT22;7917;50.818;6.972;2023-07-16T13:25:34;26.10;1.00
15636;DHT22;7917;50.818;6.972;2023-07-16T13:28:01;26.20;1.00
15636;DHT22;7917;50.818;6.972;2023-07-16T13:30:31;25.90;1.00
15636;DHT22;7917;50.818;6.972;2023-07-16T13:32:58;25.50;1.00
15636;DHT22;7917;50.818;6.972;2023-07-16T13:35:26;25.40;1.00
15636;DHT22;7917;50.818;6.972;2023-07-16T13:37:53;25.60;1.00
15636;DHT22;7917;50.818;6.972;2023-07-16T13:40:20;26.10;1.00
15636;DHT22;7917;50.818;6.972;2023-07-16T13:42:47;26.20;1.00
15636;DHT22;7917;50.818;6.972;2023-07-16T13:45:14;26.10;1.00
15636;DHT22;7917;50.818;6.972;2023-07-16T13:47:42;26.00;1.00
15636;DHT22;7917;50.818;6.972;2023-07-16T13:50:09;26.00;1.00
15636;DHT22;7917;50.818;6.972;2023-07-16T13:52:36;26.30;1.00
15636;DHT22;7917;50.818;6.972;2023-07-16T13:55:04;26.90;1.00
15636;DHT22;7917;50.818;6.972;2023-07-16T13:57:31;27.10;1.00
15636;DHT22;7917;50.818;6.972;2023-07-16T13:59:58;26.70;1.00
15636;DHT22;7917;50.818;6.972;2023-07-16T14:02:26;26.70;1.00
15636;DHT22;7917;50.818;6.972;2023-07-16T14:04:55;26.50;1.00
15636;DHT22;7917;50.818;6.972;2023-07-16T14:07:22;26.30;1.00
15636;DHT22;7917;50.818;6.972;2023-07-16T14:09:49;26.20;1.00
15636;DHT22;7917;50.818;6.972;2023-07-16T14:12:16;25.70;1.00
15636;DHT22;7917;50.818;6.972;2023-07-16T14:14:43;26.10;1.00
15636;DHT22;7917;50.818;6.972;2023-07-16T14:17:14;26.60;1.00
15636;DHT22;7917;50.818;6.972;2023-07-16T14:19:41;26.70;1.00
15636;DHT22;7917;50.818;6.972;2023-07-16T14:22:09;26.90;1.00
15636;DHT22;7917;50.818;6.972;2023-07-16T14:24:37;27.30;1.00
15636;DHT22;7917;50.818;6.972;2023-07-16T14:27:06;27.60;1.00
15636;DHT22;7917;50.818;6.972;2023-07-16T14:29:33;27.10;1.00
15636;DHT22;7917;50.818;6.972;2023-07-16T14:32:01;27.00;1.00
15636;DHT22;7917;50.818;6.972;2023-07-16T14:34:29;27.20;1.00
15636;DHT22;7917;50.818;6.972;2023-07-16T14:36:56;27.20;1.00
15636;DHT22;7917;50.818;6.972;2023-07-16T14:39:24;26.60;1.00
15636;DHT22;7917;50.818;6.972;2023-07-16T14:41:54;26.20;1.00
15636;DHT22;7917;50.818;6.972;2023-07-16T14:44:21;26.70;1.00
15636;DHT22;7917;50.818;6.972;2023-07-16T14:46:48;27.30;1.00
15636;DHT22;7917;50.818;6.972;2023-07-16T14:49:15;27.60;1.00
15636;DHT22;7917;50.818;6.972;2023-07-16T14:51:42;28.50;1.00
15636;DHT22;7917;50.818;6.972;2023-07-16T14:54:10;29.50;1.00
15636;DHT22;7917;50.818;6.972;2023-07-16T14:56:37;29.40;1.00
15636;DHT22;7917;50.818;6.972;2023-07-16T14:59:08;28.90;1.00
15636;DHT22;7917;50.818;6.972;2023-07-16T15:01:35;28.80;1.00
15636;DHT22;7917;50.818;6.972;2023-07-16T15:04:03;29.30;1.00
15636;DHT22;7917;50.818;6.972;2023-07-16T15:06:30;29.70;1.00
15636;DHT22;7917;50.818;6.972;2023-07-16T15:08:57;29.80;1.00
15636;DHT22;7917;50.818;6.972;2023-07-16T15:11:23;28.60;1.00
15636;DHT22;7917;50.818;6.972;2023-07-16T15:13:51;28.50;1.00
15636;DHT22;7917;50.818;6.972;2023-07-16T15:16:17;28.40;1.00
15636;DHT22;7917;50.818;6.972;2023-07-16T15:18:44;28.80;1.00
15636;DHT22;7917;50.818;6.972;2023-07-16T15:21:11;28.80;1.00
15636;DHT22;7917;50.818;6.972;2023-07-16T15:23:42;27.60;1.00
15636;DHT22;7917;50.818;6.972;2023-07-16T15:26:09;26.80;1.00
15636;DHT22;7917;50.818;6.972;2023-07-16T15:28:37;26.70;1.00
15636;DHT22;7917;50.818;6.972;2023-07-16T15:31:05;27.70;1.00
15636;DHT22;7917;50.818;6.972;2023-07-16T15:33:31;28.40;1.00
15636;DHT22;7917;50.818;6.972;2023-07-16T15:36:00;28.40;1.00
15636;DHT22;7917;50.818;6.972;2023-07-16T15:38:27;28.50;1.00
15636;DHT22;7917;50.818;6.972;2023-07-16T15:40:54;28.00;1.00
15636;DHT22;7917;50.818;6.972;2023-07-16T15:43:22;27.70;1.00
15636;DHT22;7917;50.818;6.972;2023-07-16T15:45:49;27.70;1.00
15636;DHT22;7917;50.818;6.972;2023-07-16T15:48:17;27.70;1.00
15636;DHT22;7917;50.818;6.972;2023-07-16T15:50:47;27.60;1.00
15636;DHT22;7917;50.818;6.972;2023-07-16T15:53:14;27.50;1.00
15636;DHT22;7917;50.818;6.972;2023-07-16T15:55:42;27.20;1.00
15636;DHT22;7917;50.818;6.972;2023-07-16T15:58:09;27.00;1.00
15636;DHT22;7917;50.818;6.972;2023-07-16T16:00:36;27.10;1.00
15636;DHT22;7917;50.818;6.972;2023-07-16T16:03:03;26.90;1.00